createdAt,value
2022-08-19T17:46:19.410Z,25.40
2022-08-19T17:48:54.926Z,25.30
2022-08-19T17:51:42.161Z,25.30
2022-08-19T17:54:15.759Z,25.30
2022-08-19T17:56:43.543Z,25.30
2022-08-19T17:59:13.760Z,25.20
2022-08-19T18:01:53.784Z,25.10
2022-08-19T18:04:23.981Z,25.10
2022-08-19T18:06:53.297Z,25.10
2022-08-19T18:09:41.847Z,25.10
2022-08-19T18:12:13.968Z,25.10
2022-08-19T18:14:41.920Z,25.10
2022-08-19T18:17:12.421Z,25.10
2022-08-19T18:19:43.416Z,25.10
2022-08-19T18:22:26.731Z,25.10
2022-08-19T18:24:54.607Z,25.10
2022-08-19T18:27:21.404Z,25.10
2022-08-19T18:29:48.533Z,25.00
2022-08-19T18:32:21.206Z,25.00
2022-08-19T18:34:51.296Z,25.00
2022-08-19T18:37:18.000Z,25.00
2022-08-19T18:40:03.487Z,25.00
2022-08-19T18:42:48.632Z,25.00
2022-08-19T18:45:34.068Z,25.00
2022-08-19T18:48:24.236Z,24.90
2022-08-19T18:50:59.454Z,24.90
2022-08-19T18:53:29.155Z,24.90
2022-08-19T18:55:56.861Z,24.90
2022-08-19T18:58:26.726Z,24.90
2022-08-19T19:00:56.712Z,24.80
2022-08-19T19:03:24.387Z,24.80
2022-08-19T19:05:52.698Z,24.80
2022-08-19T19:08:19.500Z,24.80
2022-08-19T19:10:47.631Z,24.70
2022-08-19T19:13:17.773Z,24.60
2022-08-19T19:15:44.550Z,24.50
2022-08-19T19:18:13.521Z,24.30
2022-08-19T19:20:41.267Z,24.20
2022-08-19T19:23:08.567Z,24.10
2022-08-19T19:25:50.355Z,24.00
2022-08-19T19:28:28.849Z,23.90
2022-08-19T19:30:58.482Z,23.90
2022-08-19T19:33:26.514Z,23.80
2022-08-19T19:35:53.601Z,23.70
2022-08-19T19:38:20.416Z,23.70
2022-08-19T19:40:47.502Z,23.70
2022-08-19T19:43:17.336Z,23.70
2022-08-19T19:45:44.632Z,23.70
2022-08-19T19:48:13.476Z,23.70
2022-08-19T19:50:40.348Z,23.80
2022-08-19T19:53:07.102Z,23.80
2022-08-19T19:55:33.838Z,23.70
2022-08-19T19:58:00.597Z,23.50
2022-08-19T20:00:27.342Z,23.30
2022-08-19T20:02:56.049Z,23.10
2022-08-19T20:05:23.764Z,22.80
2022-08-19T20:08:10.520Z,22.50
2022-08-19T20:10:38.103Z,22.50
2022-08-19T20:13:05.507Z,22.40
2022-08-19T20:15:32.614Z,22.30
2022-08-19T20:18:00.820Z,22.20
2022-08-19T20:20:28.202Z,22.10
2022-08-19T20:22:55.130Z,22.10
2022-08-19T20:25:22.307Z,22.10
2022-08-19T20:27:49.645Z,22.10
2022-08-19T20:30:19.423Z,22.00
2022-08-19T20:32:47.592Z,22.10
2022-08-19T20:35:16.524Z,22.00
2022-08-19T20:37:43.313Z,22.00
2022-08-19T20:40:11.002Z,22.00
2022-08-19T20:42:40.944Z,22.10
2022-08-19T20:45:18.216Z,22.10
2022-08-19T20:47:57.839Z,22.20
2022-08-19T20:50:26.088Z,22.20
2022-08-19T20:52:57.133Z,22.10
2022-08-19T20:55:23.916Z,22.10
2022-08-19T20:57:51.624Z,22.10
2022-08-19T21:00:18.632Z,22.10
2022-08-19T21:02:46.848Z,22.10
2022-08-19T21:05:13.872Z,22.10
2022-08-19T21:07:40.748Z,22.10
2022-08-19T21:10:08.240Z,22.10
2022-08-19T21:12:35.462Z,22.10
2022-08-19T21:15:02.347Z,22.00
2022-08-19T21:17:29.108Z,22.00
2022-08-19T21:19:55.821Z,22.00
2022-08-19T21:22:22.658Z,21.90
2022-08-19T21:24:49.381Z,21.90
2022-08-19T21:27:16.133Z,21.80
2022-08-19T21:29:43.168Z,21.90
2022-08-19T21:32:14.130Z,21.80
2022-08-19T21:34:43.710Z,21.80
2022-08-19T21:37:24.865Z,21.80
2022-08-19T21:39:53.875Z,21.80
2022-08-19T21:42:21.629Z,21.80
2022-08-19T21:44:48.546Z,21.80
2022-08-19T21:47:15.630Z,21.80
2022-08-19T21:49:42.448Z,21.70
2022-08-19T21:52:09.517Z,21.70
2022-08-19T21:54:37.695Z,21.70
2022-08-19T21:57:09.997Z,21.60
2022-08-19T21:59:43.868Z,21.60
2022-08-19T22:02:20.029Z,21.60
2022-08-19T22:04:49.122Z,21.50
2022-08-19T22:07:16.081Z,21.40
2022-08-19T22:09:45.189Z,21.40
2022-08-19T22:12:24.463Z,21.30
2022-08-19T22:14:52.365Z,21.30
2022-08-19T22:17:20.299Z,21.20
2022-08-19T22:19:47.158Z,21.20
2022-08-19T22:22:26.034Z,21.10
2022-08-19T22:24:54.466Z,21.10
2022-08-19T22:27:21.421Z,21.10
2022-08-19T22:29:48.155Z,21.10
2022-08-19T22:32:26.904Z,21.10
2022-08-19T22:34:56.881Z,21.20
2022-08-19T22:37:23.732Z,21.20
2022-08-19T22:39:50.607Z,21.20
2022-08-19T22:42:22.019Z,21.10
2022-08-19T22:44:49.202Z,21.20
2022-08-19T22:47:16.148Z,21.20
2022-08-19T22:49:43.516Z,21.20
2022-08-19T22:52:19.745Z,21.20
2022-08-19T22:54:48.999Z,21.20
2022-08-19T22:57:16.611Z,21.20
2022-08-19T22:59:43.390Z,21.20
2022-08-19T23:02:10.227Z,21.20
2022-08-19T23:04:37.065Z,21.30
2022-08-19T23:07:05.419Z,21.30
2022-08-19T23:09:32.173Z,21.30
2022-08-19T23:12:00.519Z,21.30
2022-08-19T23:14:28.046Z,21.30
2022-08-19T23:16:58.747Z,21.40
2022-08-19T23:19:25.939Z,21.40
2022-08-19T23:21:52.778Z,21.40
2022-08-19T23:24:19.830Z,21.50
2022-08-19T23:27:05.165Z,21.50
2022-08-19T23:29:51.242Z,21.50
2022-08-19T23:32:19.999Z,21.50
2022-08-19T23:34:47.204Z,21.60
2022-08-19T23:37:14.036Z,21.50
2022-08-19T23:39:41.251Z,21.50
2022-08-19T23:42:11.574Z,21.50
2022-08-19T23:44:51.250Z,21.50
2022-08-19T23:47:19.902Z,21.50
2022-08-19T23:49:47.452Z,21.50
2022-08-19T23:52:14.195Z,21.50
2022-08-19T23:54:43.653Z,21.50
2022-08-19T23:57:13.274Z,21.50
2022-08-19T23:59:42.401Z,21.50
